sensor_id;sensor_type;location;lat;lon;timestamp;P1;durP1;ratioP1;P2;durP2;ratioP2
9892;SDS011;4985;49.092;8.542;2022-08-03T00:00:52;2.70;;;1.80;;
9892;SDS011;4985;49.092;8.542;2022-08-03T00:03:18;2.08;;;1.60;;
9892;SDS011;4985;49.092;8.542;2022-08-03T00:05:45;3.17;;;1.80;;
9892;SDS011;4985;49.092;8.542;2022-08-03T00:08:12;4.05;;;1.90;;
9892;SDS011;4985;49.092;8.542;2022-08-03T00:10:38;2.05;;;1.80;;
9892;SDS011;4985;49.092;8.542;2022-08-03T00:13:05;1.70;;;1.60;;
9892;SDS011;4985;49.092;8.542;2022-08-03T00:15:32;2.45;;;1.90;;
9892;SDS011;4985;49.092;8.542;2022-08-03T00:18:00;2.12;;;1.92;;
9892;SDS011;4985;49.092;8.542;2022-08-03T00:20:26;2.90;;;2.00;;
9892;SDS011;4985;49.092;8.542;2022-08-03T00:22:53;3.62;;;1.83;;
9892;SDS011;4985;49.092;8.542;2022-08-03T00:25:19;4.72;;;1.67;;
9892;SDS011;4985;49.092;8.542;2022-08-03T00:27:46;2.50;;;1.85;;
9892;SDS011;4985;49.092;8.542;2022-08-03T00:30:13;3.12;;;2.10;;
9892;SDS011;4985;49.092;8.542;2022-08-03T00:32:39;2.87;;;2.10;;
9892;SDS011;4985;49.092;8.542;2022-08-03T00:35:08;3.37;;;2.00;;
9892;SDS011;4985;49.092;8.542;2022-08-03T00:37:34;3.70;;;2.05;;
9892;SDS011;4985;49.092;8.542;2022-08-03T00:40:01;2.00;;;1.80;;
9892;SDS011;4985;49.092;8.542;2022-08-03T00:42:28;2.10;;;1.90;;
9892;SDS011;4985;49.092;8.542;2022-08-03T00:44:54;2.92;;;1.50;;
9892;SDS011;4985;49.092;8.542;2022-08-03T00:47:21;2.42;;;1.87;;
9892;SDS011;4985;49.092;8.542;2022-08-03T00:49:47;5.20;;;2.03;;
9892;SDS011;4985;49.092;8.542;2022-08-03T00:52:15;1.83;;;1.70;;
9892;SDS011;4985;49.092;8.542;2022-08-03T00:54:42;1.98;;;1.75;;
9892;SDS011;4985;49.092;8.542;2022-08-03T00:57:09;2.47;;;1.85;;
9892;SDS011;4985;49.092;8.542;2022-08-03T00:59:35;2.50;;;2.00;;
9892;SDS011;4985;49.092;8.542;2022-08-03T01:02:03;4.03;;;1.65;;
9892;SDS011;4985;49.092;8.542;2022-08-03T01:04:30;2.35;;;1.80;;
9892;SDS011;4985;49.092;8.542;2022-08-03T01:06:59;1.95;;;1.73;;
9892;SDS011;4985;49.092;8.542;2022-08-03T01:09:35;1.70;;;1.50;;
9892;SDS011;4985;49.092;8.542;2022-08-03T01:12:12;4.35;;;1.70;;
9892;SDS011;4985;49.092;8.542;2022-08-03T01:14:54;2.10;;;1.80;;
9892;SDS011;4985;49.092;8.542;2022-08-03T01:17:27;2.53;;;1.85;;
9892;SDS011;4985;49.092;8.542;2022-08-03T01:20:00;2.08;;;1.75;;
9892;SDS011;4985;49.092;8.542;2022-08-03T01:22:38;1.70;;;1.60;;
9892;SDS011;4985;49.092;8.542;2022-08-03T01:25:22;2.47;;;1.75;;
9892;SDS011;4985;49.092;8.542;2022-08-03T01:27:57;4.70;;;1.70;;
9892;SDS011;4985;49.092;8.542;2022-08-03T01:30:36;2.08;;;1.65;;
9892;SDS011;4985;49.092;8.542;2022-08-03T01:33:07;5.95;;;1.83;;
9892;SDS011;4985;49.092;8.542;2022-08-03T01:35:42;2.37;;;1.85;;
9892;SDS011;4985;49.092;8.542;2022-08-03T01:38:12;1.70;;;1.40;;
9892;SDS011;4985;49.092;8.542;2022-08-03T01:40:43;2.45;;;2.05;;
9892;SDS011;4985;49.092;8.542;2022-08-03T01:43:14;1.80;;;1.70;;
9892;SDS011;4985;49.092;8.542;2022-08-03T01:45:44;1.87;;;1.60;;
9892;SDS011;4985;49.092;8.542;2022-08-03T01:48:12;2.97;;;1.55;;
9892;SDS011;4985;49.092;8.542;2022-08-03T01:50:42;4.03;;;1.80;;
9892;SDS011;4985;49.092;8.542;2022-08-03T01:53:12;1.85;;;1.75;;
9892;SDS011;4985;49.092;8.542;2022-08-03T01:55:40;3.12;;;1.90;;
9892;SDS011;4985;49.092;8.542;2022-08-03T01:58:09;2.00;;;1.80;;
9892;SDS011;4985;49.092;8.542;2022-08-03T02:00:38;2.17;;;1.98;;
9892;SDS011;4985;49.092;8.542;2022-08-03T02:03:08;2.35;;;1.70;;
9892;SDS011;4985;49.092;8.542;2022-08-03T02:05:38;2.05;;;1.65;;
9892;SDS011;4985;49.092;8.542;2022-08-03T02:08:06;1.77;;;1.67;;
9892;SDS011;4985;49.092;8.542;2022-08-03T02:10:36;2.87;;;1.75;;
9892;SDS011;4985;49.092;8.542;2022-08-03T02:13:04;2.08;;;1.87;;
9892;SDS011;4985;49.092;8.542;2022-08-03T02:15:34;2.22;;;1.70;;
9892;SDS011;4985;49.092;8.542;2022-08-03T02:18:02;3.47;;;2.10;;
9892;SDS011;4985;49.092;8.542;2022-08-03T02:20:32;4.18;;;1.70;;
9892;SDS011;4985;49.092;8.542;2022-08-03T02:23:00;1.90;;;1.70;;
9892;SDS011;4985;49.092;8.542;2022-08-03T02:25:27;2.30;;;1.75;;
9892;SDS011;4985;49.092;8.542;2022-08-03T02:27:56;4.57;;;1.85;;
9892;SDS011;4985;49.092;8.542;2022-08-03T02:30:28;1.83;;;1.73;;
9892;SDS011;4985;49.092;8.542;2022-08-03T02:33:01;2.33;;;2.08;;
9892;SDS011;4985;49.092;8.542;2022-08-03T02:35:28;2.37;;;1.92;;
9892;SDS011;4985;49.092;8.542;2022-08-03T02:37:58;2.37;;;1.90;;
9892;SDS011;4985;49.092;8.542;2022-08-03T02:40:27;2.55;;;1.80;;
9892;SDS011;4985;49.092;8.542;2022-08-03T02:42:56;2.67;;;2.20;;
9892;SDS011;4985;49.092;8.542;2022-08-03T02:45:25;2.08;;;1.87;;
9892;SDS011;4985;49.092;8.542;2022-08-03T02:47:55;2.15;;;1.70;;
9892;SDS011;4985;49.092;8.542;2022-08-03T02:50:25;2.42;;;2.03;;
9892;SDS011;4985;49.092;8.542;2022-08-03T02:52:54;3.28;;;1.95;;
9892;SDS011;4985;49.092;8.542;2022-08-03T02:55:25;4.90;;;1.80;;
9892;SDS011;4985;49.092;8.542;2022-08-03T02:57:52;1.92;;;1.75;;
9892;SDS011;4985;49.092;8.542;2022-08-03T03:00:20;2.67;;;1.83;;
9892;SDS011;4985;49.092;8.542;2022-08-03T03:02:48;2.20;;;2.00;;
9892;SDS011;4985;49.092;8.542;2022-08-03T03:05:16;1.90;;;1.70;;
9892;SDS011;4985;49.092;8.542;2022-08-03T03:07:43;2.10;;;1.80;;
9892;SDS011;4985;49.092;8.542;2022-08-03T03:10:11;2.87;;;1.95;;
9892;SDS011;4985;49.092;8.542;2022-08-03T03:12:39;2.47;;;1.70;;
9892;SDS011;4985;49.092;8.542;2022-08-03T03:15:07;3.10;;;2.00;;
9892;SDS011;4985;49.092;8.542;2022-08-03T03:17:34;3.65;;;1.70;;
9892;SDS011;4985;49.092;8.542;2022-08-03T03:20:03;3.03;;;1.73;;
9892;SDS011;4985;49.092;8.542;2022-08-03T03:22:32;2.72;;;2.03;;
9892;SDS011;4985;49.092;8.542;2022-08-03T03:25:00;4.45;;;2.05;;
9892;SDS011;4985;49.092;8.542;2022-08-03T03:27:27;4.12;;;2.30;;
9892;SDS011;4985;49.092;8.542;2022-08-03T03:29:56;2.70;;;2.25;;
9892;SDS011;4985;49.092;8.542;2022-08-03T03:32:23;6.05;;;1.83;;
9892;SDS011;4985;49.092;8.542;2022-08-03T03:34:51;2.87;;;2.00;;
9892;SDS011;4985;49.092;8.542;2022-08-03T03:37:18;3.25;;;2.37;;
9892;SDS011;4985;49.092;8.542;2022-08-03T03:39:45;3.08;;;2.03;;
9892;SDS011;4985;49.092;8.542;2022-08-03T03:42:12;2.03;;;1.87;;
9892;SDS011;4985;49.092;8.542;2022-08-03T03:44:39;2.03;;;1.90;;
9892;SDS011;4985;49.092;8.542;2022-08-03T03:47:07;2.75;;;2.17;;
9892;SDS011;4985;49.092;8.542;2022-08-03T03:49:33;2.70;;;2.08;;
9892;SDS011;4985;49.092;8.542;2022-08-03T03:52:01;2.50;;;2.10;;
9892;SDS011;4985;49.092;8.542;2022-08-03T03:54:37;2.15;;;1.95;;
9892;SDS011;4985;49.092;8.542;2022-08-03T03:57:05;3.42;;;2.10;;
9892;SDS011;4985;49.092;8.542;2022-08-03T03:59:32;2.05;;;1.87;;
9892;SDS011;4985;49.092;8.542;2022-08-03T04:01:58;7.35;;;2.08;;
9892;SDS011;4985;49.092;8.542;2022-08-03T04:04:26;4.87;;;2.20;;
9892;SDS011;4985;49.092;8.542;2022-08-03T04:07:10;2.67;;;1.90;;
9892;SDS011;4985;49.092;8.542;2022-08-03T04:09:55;2.00;;;1.80;;
9892;SDS011;4985;49.092;8.542;2022-08-03T04:12:39;4.12;;;1.67;;
9892;SDS011;4985;49.092;8.542;2022-08-03T04:15:07;2.90;;;1.90;;
9892;SDS011;4985;49.092;8.542;2022-08-03T04:17:37;3.78;;;2.12;;
9892;SDS011;4985;49.092;8.542;2022-08-03T04:20:07;3.10;;;2.00;;
9892;SDS011;4985;49.092;8.542;2022-08-03T04:22:36;2.33;;;2.08;;
9892;SDS011;4985;49.092;8.542;2022-08-03T04:25:05;3.10;;;2.35;;
9892;SDS011;4985;49.092;8.542;2022-08-03T04:27:35;2.10;;;1.90;;
9892;SDS011;4985;49.092;8.542;2022-08-03T04:30:04;3.75;;;2.28;;
9892;SDS011;4985;49.092;8.542;2022-08-03T04:32:32;3.80;;;2.17;;
9892;SDS011;4985;49.092;8.542;2022-08-03T04:35:00;2.92;;;2.10;;
9892;SDS011;4985;49.092;8.542;2022-08-03T04:37:31;2.47;;;2.00;;
9892;SDS011;4985;49.092;8.542;2022-08-03T04:40:04;4.05;;;2.28;;
9892;SDS011;4985;49.092;8.542;2022-08-03T04:42:33;2.50;;;2.28;;
9892;SDS011;4985;49.092;8.542;2022-08-03T04:45:03;2.55;;;2.30;;
9892;SDS011;4985;49.092;8.542;2022-08-03T04:47:32;3.90;;;2.50;;
9892;SDS011;4985;49.092;8.542;2022-08-03T04:49:59;4.32;;;2.47;;
9892;SDS011;4985;49.092;8.542;2022-08-03T04:52:26;3.33;;;2.08;;
9892;SDS011;4985;49.092;8.542;2022-08-03T04:54:55;2.60;;;2.20;;
9892;SDS011;4985;49.092;8.542;2022-08-03T04:57:21;4.72;;;2.40;;
9892;SDS011;4985;49.092;8.542;2022-08-03T04:59:48;2.95;;;2.05;;
9892;SDS011;4985;49.092;8.542;2022-08-03T05:02:18;2.67;;;2.47;;
9892;SDS011;4985;49.092;8.542;2022-08-03T05:04:44;3.05;;;2.45;;
9892;SDS011;4985;49.092;8.542;2022-08-03T05:07:11;4.43;;;2.30;;
9892;SDS011;4985;49.092;8.542;2022-08-03T05:09:38;3.80;;;2.47;;
9892;SDS011;4985;49.092;8.542;2022-08-03T05:12:06;4.53;;;2.53;;
9892;SDS011;4985;49.092;8.542;2022-08-03T05:14:33;4.72;;;2.15;;
9892;SDS011;4985;49.092;8.542;2022-08-03T05:17:02;3.28;;;2.22;;
9892;SDS011;4985;49.092;8.542;2022-08-03T05:19:29;4.40;;;2.60;;
9892;SDS011;4985;49.092;8.542;2022-08-03T05:21:55;6.05;;;2.80;;
9892;SDS011;4985;49.092;8.542;2022-08-03T05:24:22;5.60;;;2.58;;
9892;SDS011;4985;49.092;8.542;2022-08-03T05:26:49;2.85;;;2.45;;
9892;SDS011;4985;49.092;8.542;2022-08-03T05:29:17;9.70;;;2.50;;
9892;SDS011;4985;49.092;8.542;2022-08-03T05:31:43;3.78;;;2.65;;
9892;SDS011;4985;49.092;8.542;2022-08-03T05:34:10;6.20;;;2.60;;
9892;SDS011;4985;49.092;8.542;2022-08-03T05:36:36;3.90;;;2.37;;
9892;SDS011;4985;49.092;8.542;2022-08-03T05:39:03;5.45;;;2.47;;
9892;SDS011;4985;49.092;8.542;2022-08-03T05:41:30;4.35;;;2.42;;
9892;SDS011;4985;49.092;8.542;2022-08-03T05:43:57;6.07;;;2.72;;
9892;SDS011;4985;49.092;8.542;2022-08-03T05:46:25;11.90;;;2.58;;
9892;SDS011;4985;49.092;8.542;2022-08-03T05:48:51;6.43;;;2.62;;
9892;SDS011;4985;49.092;8.542;2022-08-03T05:51:18;10.18;;;2.55;;
9892;SDS011;4985;49.092;8.542;2022-08-03T05:53:45;6.35;;;2.62;;
9892;SDS011;4985;49.092;8.542;2022-08-03T05:56:11;5.62;;;2.62;;
9892;SDS011;4985;49.092;8.542;2022-08-03T05:58:38;7.53;;;2.30;;
9892;SDS011;4985;49.092;8.542;2022-08-03T06:01:05;10.00;;;2.60;;
9892;SDS011;4985;49.092;8.542;2022-08-03T06:03:33;4.57;;;2.83;;
9892;SDS011;4985;49.092;8.542;2022-08-03T06:05:59;4.45;;;2.90;;
9892;SDS011;4985;49.092;8.542;2022-08-03T06:08:26;6.47;;;2.45;;
9892;SDS011;4985;49.092;8.542;2022-08-03T06:10:53;5.90;;;2.72;;
9892;SDS011;4985;49.092;8.542;2022-08-03T06:13:19;7.75;;;2.83;;
9892;SDS011;4985;49.092;8.542;2022-08-03T06:15:46;6.25;;;2.70;;
9892;SDS011;4985;49.092;8.542;2022-08-03T06:18:12;4.30;;;2.30;;
9892;SDS011;4985;49.092;8.542;2022-08-03T06:20:40;11.95;;;2.60;;
9892;SDS011;4985;49.092;8.542;2022-08-03T06:23:07;6.32;;;2.60;;
9892;SDS011;4985;49.092;8.542;2022-08-03T06:25:33;11.10;;;3.17;;
9892;SDS011;4985;49.092;8.542;2022-08-03T06:28:00;7.82;;;2.58;;
9892;SDS011;4985;49.092;8.542;2022-08-03T06:30:29;4.30;;;2.50;;
9892;SDS011;4985;49.092;8.542;2022-08-03T06:32:55;7.62;;;2.70;;
9892;SDS011;4985;49.092;8.542;2022-08-03T06:35:22;7.03;;;2.95;;
9892;SDS011;4985;49.092;8.542;2022-08-03T06:37:50;5.93;;;2.30;;
9892;SDS011;4985;49.092;8.542;2022-08-03T06:40:18;3.17;;;2.45;;
9892;SDS011;4985;49.092;8.542;2022-08-03T06:42:52;6.62;;;2.60;;
9892;SDS011;4985;49.092;8.542;2022-08-03T06:45:19;5.62;;;2.53;;
9892;SDS011;4985;49.092;8.542;2022-08-03T06:47:46;7.12;;;2.47;;
9892;SDS011;4985;49.092;8.542;2022-08-03T06:50:12;5.12;;;2.40;;
9892;SDS011;4985;49.092;8.542;2022-08-03T06:52:39;8.82;;;2.80;;
9892;SDS011;4985;49.092;8.542;2022-08-03T06:55:07;2.87;;;2.30;;
9892;SDS011;4985;49.092;8.542;2022-08-03T06:57:34;3.97;;;2.50;;
9892;SDS011;4985;49.092;8.542;2022-08-03T07:00:01;3.10;;;2.20;;
9892;SDS011;4985;49.092;8.542;2022-08-03T07:02:27;6.00;;;2.40;;
9892;SDS011;4985;49.092;8.542;2022-08-03T07:04:55;3.65;;;2.42;;
9892;SDS011;4985;49.092;8.542;2022-08-03T07:07:22;9.25;;;2.67;;
9892;SDS011;4985;49.092;8.542;2022-08-03T07:09:48;4.00;;;2.62;;
9892;SDS011;4985;49.092;8.542;2022-08-03T07:12:16;5.45;;;2.50;;
9892;SDS011;4985;49.092;8.542;2022-08-03T07:14:43;9.50;;;2.70;;
9892;SDS011;4985;49.092;8.542;2022-08-03T07:17:09;14.10;;;3.20;;
9892;SDS011;4985;49.092;8.542;2022-08-03T07:19:36;7.10;;;2.47;;
9892;SDS011;4985;49.092;8.542;2022-08-03T07:22:03;6.40;;;2.45;;
9892;SDS011;4985;49.092;8.542;2022-08-03T07:24:29;2.22;;;2.00;;
9892;SDS011;4985;49.092;8.542;2022-08-03T07:26:56;4.78;;;2.33;;
9892;SDS011;4985;49.092;8.542;2022-08-03T07:29:24;5.32;;;2.20;;
9892;SDS011;4985;49.092;8.542;2022-08-03T07:31:50;4.12;;;2.37;;
9892;SDS011;4985;49.092;8.542;2022-08-03T07:34:17;3.08;;;2.05;;
9892;SDS011;4985;49.092;8.542;2022-08-03T07:36:43;3.03;;;2.42;;
9892;SDS011;4985;49.092;8.542;2022-08-03T07:39:10;6.30;;;2.37;;
9892;SDS011;4985;49.092;8.542;2022-08-03T07:41:37;8.10;;;2.97;;
9892;SDS011;4985;49.092;8.542;2022-08-03T07:44:03;4.30;;;2.30;;
9892;SDS011;4985;49.092;8.542;2022-08-03T07:46:31;3.95;;;2.17;;
9892;SDS011;4985;49.092;8.542;2022-08-03T07:48:58;7.00;;;2.42;;
9892;SDS011;4985;49.092;8.542;2022-08-03T07:51:25;3.83;;;2.22;;
9892;SDS011;4985;49.092;8.542;2022-08-03T07:53:52;3.12;;;1.87;;
9892;SDS011;4985;49.092;8.542;2022-08-03T07:56:21;2.35;;;1.95;;
9892;SDS011;4985;49.092;8.542;2022-08-03T07:58:48;4.65;;;1.95;;
9892;SDS011;4985;49.092;8.542;2022-08-03T08:01:15;4.87;;;2.12;;
9892;SDS011;4985;49.092;8.542;2022-08-03T08:03:44;4.37;;;2.45;;
9892;SDS011;4985;49.092;8.542;2022-08-03T08:06:11;3.47;;;2.30;;
9892;SDS011;4985;49.092;8.542;2022-08-03T08:08:38;3.55;;;2.20;;
9892;SDS011;4985;49.092;8.542;2022-08-03T08:11:05;3.35;;;2.10;;
9892;SDS011;4985;49.092;8.542;2022-08-03T08:13:32;5.55;;;2.53;;
9892;SDS011;4985;49.092;8.542;2022-08-03T08:15:58;3.62;;;2.45;;
9892;SDS011;4985;49.092;8.542;2022-08-03T08:18:25;2.15;;;1.80;;
9892;SDS011;4985;49.092;8.542;2022-08-03T08:20:54;5.00;;;2.35;;
9892;SDS011;4985;49.092;8.542;2022-08-03T08:23:21;5.22;;;2.00;;
9892;SDS011;4985;49.092;8.542;2022-08-03T08:25:48;3.35;;;2.08;;
9892;SDS011;4985;49.092;8.542;2022-08-03T08:28:16;4.60;;;2.42;;
9892;SDS011;4985;49.092;8.542;2022-08-03T08:30:43;2.70;;;2.20;;
9892;SDS011;4985;49.092;8.542;2022-08-03T08:33:10;4.53;;;2.00;;
9892;SDS011;4985;49.092;8.542;2022-08-03T08:35:36;4.97;;;2.10;;
9892;SDS011;4985;49.092;8.542;2022-08-03T08:38:04;2.78;;;1.70;;
9892;SDS011;4985;49.092;8.542;2022-08-03T08:40:31;4.82;;;1.80;;
9892;SDS011;4985;49.092;8.542;2022-08-03T08:42:58;2.20;;;1.67;;
9892;SDS011;4985;49.092;8.542;2022-08-03T08:45:24;2.55;;;1.73;;
9892;SDS011;4985;49.092;8.542;2022-08-03T08:47:51;6.80;;;1.85;;
9892;SDS011;4985;49.092;8.542;2022-08-03T08:50:21;3.50;;;1.73;;
9892;SDS011;4985;49.092;8.542;2022-08-03T08:52:48;3.28;;;1.62;;
9892;SDS011;4985;49.092;8.542;2022-08-03T08:55:19;2.95;;;1.70;;
9892;SDS011;4985;49.092;8.542;2022-08-03T08:57:48;2.25;;;1.70;;
9892;SDS011;4985;49.092;8.542;2022-08-03T09:00:16;1.52;;;1.42;;
9892;SDS011;4985;49.092;8.542;2022-08-03T09:02:43;4.53;;;1.33;;
9892;SDS011;4985;49.092;8.542;2022-08-03T09:05:11;1.50;;;1.40;;
9892;SDS011;4985;49.092;8.542;2022-08-03T09:07:39;2.87;;;1.70;;
9892;SDS011;4985;49.092;8.542;2022-08-03T09:10:06;3.12;;;1.70;;
9892;SDS011;4985;49.092;8.542;2022-08-03T09:12:37;2.45;;;1.70;;
9892;SDS011;4985;49.092;8.542;2022-08-03T09:15:15;3.53;;;1.83;;
9892;SDS011;4985;49.092;8.542;2022-08-03T09:17:43;2.58;;;1.50;;
9892;SDS011;4985;49.092;8.542;2022-08-03T09:20:10;4.72;;;1.83;;
9892;SDS011;4985;49.092;8.542;2022-08-03T09:22:43;1.75;;;1.27;;
9892;SDS011;4985;49.092;8.542;2022-08-03T09:25:17;2.35;;;1.48;;
9892;SDS011;4985;49.092;8.542;2022-08-03T09:27:45;2.70;;;1.73;;
9892;SDS011;4985;49.092;8.542;2022-08-03T09:30:12;5.07;;;1.90;;
9892;SDS011;4985;49.092;8.542;2022-08-03T09:32:40;3.17;;;1.60;;
9892;SDS011;4985;49.092;8.542;2022-08-03T09:35:09;1.83;;;1.50;;
9892;SDS011;4985;49.092;8.542;2022-08-03T09:37:36;1.75;;;1.60;;
9892;SDS011;4985;49.092;8.542;2022-08-03T09:40:03;2.03;;;1.60;;
9892;SDS011;4985;49.092;8.542;2022-08-03T09:42:30;2.47;;;1.70;;
9892;SDS011;4985;49.092;8.542;2022-08-03T09:45:00;6.28;;;1.98;;
9892;SDS011;4985;49.092;8.542;2022-08-03T09:47:27;3.65;;;1.90;;
9892;SDS011;4985;49.092;8.542;2022-08-03T09:49:56;4.10;;;1.67;;
9892;SDS011;4985;49.092;8.542;2022-08-03T09:52:28;2.10;;;1.67;;
9892;SDS011;4985;49.092;8.542;2022-08-03T09:54:57;1.85;;;1.75;;
9892;SDS011;4985;49.092;8.542;2022-08-03T09:57:25;2.00;;;1.83;;
9892;SDS011;4985;49.092;8.542;2022-08-03T09:59:52;4.50;;;1.90;;
9892;SDS011;4985;49.092;8.542;2022-08-03T10:02:31;3.80;;;1.58;;
9892;SDS011;4985;49.092;8.542;2022-08-03T10:04:58;4.60;;;1.87;;
9892;SDS011;4985;49.092;8.542;2022-08-03T10:07:24;2.00;;;1.77;;
9892;SDS011;4985;49.092;8.542;2022-08-03T10:09:55;3.62;;;2.00;;
9892;SDS011;4985;49.092;8.542;2022-08-03T10:12:22;2.95;;;1.73;;
9892;SDS011;4985;49.092;8.542;2022-08-03T10:14:50;3.10;;;2.08;;
9892;SDS011;4985;49.092;8.542;2022-08-03T10:17:17;2.15;;;1.70;;
9892;SDS011;4985;49.092;8.542;2022-08-03T10:19:45;2.30;;;2.00;;
9892;SDS011;4985;49.092;8.542;2022-08-03T10:22:13;2.40;;;2.17;;
9892;SDS011;4985;49.092;8.542;2022-08-03T10:24:45;4.25;;;2.28;;
9892;SDS011;4985;49.092;8.542;2022-08-03T10:27:17;3.20;;;1.75;;
9892;SDS011;4985;49.092;8.542;2022-08-03T10:29:48;2.50;;;1.70;;
9892;SDS011;4985;49.092;8.542;2022-08-03T10:32:20;4.25;;;1.90;;
9892;SDS011;4985;49.092;8.542;2022-08-03T10:34:51;3.42;;;1.60;;
9892;SDS011;4985;49.092;8.542;2022-08-03T10:37:24;1.98;;;1.77;;
9892;SDS011;4985;49.092;8.542;2022-08-03T10:39:55;5.93;;;1.90;;
9892;SDS011;4985;49.092;8.542;2022-08-03T10:42:25;2.62;;;1.70;;
9892;SDS011;4985;49.092;8.542;2022-08-03T10:44:59;2.20;;;1.62;;
9892;SDS011;4985;49.092;8.542;2022-08-03T10:47:29;1.80;;;1.70;;
9892;SDS011;4985;49.092;8.542;2022-08-03T10:49:57;1.70;;;1.60;;
9892;SDS011;4985;49.092;8.542;2022-08-03T10:52:25;1.83;;;1.67;;
9892;SDS011;4985;49.092;8.542;2022-08-03T10:54:52;2.85;;;1.65;;
9892;SDS011;4985;49.092;8.542;2022-08-03T10:57:43;2.28;;;1.75;;
9892;SDS011;4985;49.092;8.542;2022-08-03T11:00:11;2.00;;;1.70;;
9892;SDS011;4985;49.092;8.542;2022-08-03T11:05:30;5.60;;;1.90;;
9892;SDS011;4985;49.092;8.542;2022-08-03T11:08:16;2.03;;;1.62;;
9892;SDS011;4985;49.092;8.542;2022-08-03T11:10:48;1.85;;;1.70;;
9892;SDS011;4985;49.092;8.542;2022-08-03T11:13:16;2.97;;;1.50;;
9892;SDS011;4985;49.092;8.542;2022-08-03T11:15:45;1.73;;;1.62;;
9892;SDS011;4985;49.092;8.542;2022-08-03T11:18:14;3.62;;;2.03;;
9892;SDS011;4985;49.092;8.542;2022-08-03T11:20:47;1.92;;;1.65;;
9892;SDS011;4985;49.092;8.542;2022-08-03T11:23:15;3.92;;;2.00;;
9892;SDS011;4985;49.092;8.542;2022-08-03T11:28:36;3.05;;;1.67;;
9892;SDS011;4985;49.092;8.542;2022-08-03T11:34:12;3.90;;;1.62;;
9892;SDS011;4985;49.092;8.542;2022-08-03T11:39:47;5.22;;;2.35;;
9892;SDS011;4985;49.092;8.542;2022-08-03T11:45:09;3.45;;;1.60;;
9892;SDS011;4985;49.092;8.542;2022-08-03T11:47:36;3.42;;;1.67;;
9892;SDS011;4985;49.092;8.542;2022-08-03T11:50:04;3.28;;;1.70;;
9892;SDS011;4985;49.092;8.542;2022-08-03T11:52:37;1.90;;;1.70;;
9892;SDS011;4985;49.092;8.542;2022-08-03T11:55:09;3.45;;;2.05;;
9892;SDS011;4985;49.092;8.542;2022-08-03T11:57:40;2.12;;;1.60;;
9892;SDS011;4985;49.092;8.542;2022-08-03T12:00:20;2.50;;;1.70;;
9892;SDS011;4985;49.092;8.542;2022-08-03T12:02:53;2.05;;;1.75;;
9892;SDS011;4985;49.092;8.542;2022-08-03T12:05:43;1.75;;;1.60;;
9892;SDS011;4985;49.092;8.542;2022-08-03T12:08:14;2.53;;;1.50;;
9892;SDS011;4985;49.092;8.542;2022-08-03T12:10:46;2.70;;;1.50;;
9892;SDS011;4985;49.092;8.542;2022-08-03T12:13:14;2.60;;;1.70;;
9892;SDS011;4985;49.092;8.542;2022-08-03T12:15:42;1.77;;;1.60;;
9892;SDS011;4985;49.092;8.542;2022-08-03T12:18:12;1.87;;;1.40;;
9892;SDS011;4985;49.092;8.542;2022-08-03T12:20:40;1.98;;;1.70;;
9892;SDS011;4985;49.092;8.542;2022-08-03T12:23:08;1.60;;;1.50;;
9892;SDS011;4985;49.092;8.542;2022-08-03T12:25:37;2.25;;;1.80;;
9892;SDS011;4985;49.092;8.542;2022-08-03T12:28:05;1.73;;;1.62;;
9892;SDS011;4985;49.092;8.542;2022-08-03T12:30:34;2.65;;;1.50;;
9892;SDS011;4985;49.092;8.542;2022-08-03T12:33:10;2.30;;;1.80;;
9892;SDS011;4985;49.092;8.542;2022-08-03T12:35:45;2.60;;;1.50;;
9892;SDS011;4985;49.092;8.542;2022-08-03T12:38:20;2.03;;;1.50;;
9892;SDS011;4985;49.092;8.542;2022-08-03T12:40:56;1.98;;;1.50;;
9892;SDS011;4985;49.092;8.542;2022-08-03T12:43:23;1.58;;;1.48;;
9892;SDS011;4985;49.092;8.542;2022-08-03T12:45:50;1.50;;;1.40;;
9892;SDS011;4985;49.092;8.542;2022-08-03T12:48:31;2.80;;;1.75;;
9892;SDS011;4985;49.092;8.542;2022-08-03T12:51:06;3.30;;;1.70;;
9892;SDS011;4985;49.092;8.542;2022-08-03T12:53:33;2.67;;;1.65;;
9892;SDS011;4985;49.092;8.542;2022-08-03T12:56:02;2.20;;;1.60;;
9892;SDS011;4985;49.092;8.542;2022-08-03T12:58:30;3.08;;;1.77;;
9892;SDS011;4985;49.092;8.542;2022-08-03T13:00:58;1.90;;;1.60;;
9892;SDS011;4985;49.092;8.542;2022-08-03T13:03:25;3.08;;;1.80;;
9892;SDS011;4985;49.092;8.542;2022-08-03T13:05:52;1.80;;;1.60;;
9892;SDS011;4985;49.092;8.542;2022-08-03T13:08:19;2.58;;;1.73;;
9892;SDS011;4985;49.092;8.542;2022-08-03T13:10:46;1.92;;;1.70;;
9892;SDS011;4985;49.092;8.542;2022-08-03T13:13:15;1.75;;;1.52;;
9892;SDS011;4985;49.092;8.542;2022-08-03T13:15:41;3.35;;;1.70;;
9892;SDS011;4985;49.092;8.542;2022-08-03T13:18:08;1.62;;;1.37;;
9892;SDS011;4985;49.092;8.542;2022-08-03T13:20:35;2.53;;;1.60;;
9892;SDS011;4985;49.092;8.542;2022-08-03T13:23:01;1.75;;;1.45;;
9892;SDS011;4985;49.092;8.542;2022-08-03T13:25:28;2.17;;;1.60;;
9892;SDS011;4985;49.092;8.542;2022-08-03T13:27:55;3.35;;;1.67;;
9892;SDS011;4985;49.092;8.542;2022-08-03T13:30:23;1.83;;;1.62;;
9892;SDS011;4985;49.092;8.542;2022-08-03T13:32:49;2.08;;;1.75;;
9892;SDS011;4985;49.092;8.542;2022-08-03T13:35:16;1.85;;;1.45;;
9892;SDS011;4985;49.092;8.542;2022-08-03T13:37:43;1.50;;;1.40;;
9892;SDS011;4985;49.092;8.542;2022-08-03T13:40:10;1.83;;;1.40;;
9892;SDS011;4985;49.092;8.542;2022-08-03T13:42:36;1.50;;;1.40;;
9892;SDS011;4985;49.092;8.542;2022-08-03T13:45:03;2.35;;;1.67;;
9892;SDS011;4985;49.092;8.542;2022-08-03T13:47:32;2.10;;;1.60;;
9892;SDS011;4985;49.092;8.542;2022-08-03T13:50:00;2.10;;;1.40;;
9892;SDS011;4985;49.092;8.542;2022-08-03T13:52:27;2.12;;;1.70;;
9892;SDS011;4985;49.092;8.542;2022-08-03T13:54:55;1.85;;;1.30;;
9892;SDS011;4985;49.092;8.542;2022-08-03T13:57:22;2.30;;;1.77;;
9892;SDS011;4985;49.092;8.542;2022-08-03T13:59:49;3.05;;;1.62;;
9892;SDS011;4985;49.092;8.542;2022-08-03T14:02:15;3.00;;;1.50;;
9892;SDS011;4985;49.092;8.542;2022-08-03T14:04:43;2.08;;;1.70;;
9892;SDS011;4985;49.092;8.542;2022-08-03T14:07:10;3.55;;;1.58;;
9892;SDS011;4985;49.092;8.542;2022-08-03T14:09:38;3.37;;;1.62;;
9892;SDS011;4985;49.092;8.542;2022-08-03T14:12:05;2.12;;;1.60;;
9892;SDS011;4985;49.092;8.542;2022-08-03T14:14:32;2.28;;;1.50;;
9892;SDS011;4985;49.092;8.542;2022-08-03T14:16:58;2.97;;;1.60;;
9892;SDS011;4985;49.092;8.542;2022-08-03T14:19:25;1.50;;;1.40;;
9892;SDS011;4985;49.092;8.542;2022-08-03T14:21:53;2.22;;;1.52;;
9892;SDS011;4985;49.092;8.542;2022-08-03T14:24:20;4.07;;;1.60;;
9892;SDS011;4985;49.092;8.542;2022-08-03T14:26:46;2.47;;;1.45;;
9892;SDS011;4985;49.092;8.542;2022-08-03T14:29:13;2.08;;;1.40;;
9892;SDS011;4985;49.092;8.542;2022-08-03T14:31:39;1.80;;;1.60;;
9892;SDS011;4985;49.092;8.542;2022-08-03T14:34:06;1.87;;;1.40;;
9892;SDS011;4985;49.092;8.542;2022-08-03T14:36:33;1.62;;;1.52;;
9892;SDS011;4985;49.092;8.542;2022-08-03T14:39:01;1.73;;;1.60;;
9892;SDS011;4985;49.092;8.542;2022-08-03T14:41:27;3.08;;;1.58;;
9892;SDS011;4985;49.092;8.542;2022-08-03T14:43:54;2.33;;;1.60;;
9892;SDS011;4985;49.092;8.542;2022-08-03T14:46:21;2.05;;;1.70;;
9892;SDS011;4985;49.092;8.542;2022-08-03T14:48:48;1.95;;;1.75;;
9892;SDS011;4985;49.092;8.542;2022-08-03T14:51:14;2.45;;;1.60;;
9892;SDS011;4985;49.092;8.542;2022-08-03T14:53:41;3.60;;;1.60;;
9892;SDS011;4985;49.092;8.542;2022-08-03T14:56:09;2.10;;;1.55;;
9892;SDS011;4985;49.092;8.542;2022-08-03T14:58:36;2.28;;;1.60;;
9892;SDS011;4985;49.092;8.542;2022-08-03T15:01:03;1.73;;;1.20;;
9892;SDS011;4985;49.092;8.542;2022-08-03T15:03:31;2.22;;;1.60;;
9892;SDS011;4985;49.092;8.542;2022-08-03T15:05:58;1.90;;;1.60;;
9892;SDS011;4985;49.092;8.542;2022-08-03T15:08:24;4.90;;;1.87;;
9892;SDS011;4985;49.092;8.542;2022-08-03T15:10:52;2.45;;;1.70;;
9892;SDS011;4985;49.092;8.542;2022-08-03T15:13:20;5.00;;;1.50;;
9892;SDS011;4985;49.092;8.542;2022-08-03T15:15:49;2.15;;;1.65;;
9892;SDS011;4985;49.092;8.542;2022-08-03T15:18:16;2.58;;;1.70;;
9892;SDS011;4985;49.092;8.542;2022-08-03T15:20:44;2.15;;;1.67;;
9892;SDS011;4985;49.092;8.542;2022-08-03T15:23:13;2.33;;;1.80;;
9892;SDS011;4985;49.092;8.542;2022-08-03T15:25:40;2.80;;;1.40;;
9892;SDS011;4985;49.092;8.542;2022-08-03T15:28:07;2.20;;;1.60;;
9892;SDS011;4985;49.092;8.542;2022-08-03T15:30:35;1.70;;;1.60;;
9892;SDS011;4985;49.092;8.542;2022-08-03T15:33:02;2.35;;;1.60;;
9892;SDS011;4985;49.092;8.542;2022-08-03T15:35:29;1.50;;;1.40;;
9892;SDS011;4985;49.092;8.542;2022-08-03T15:37:57;2.95;;;1.60;;